createdAt,value
2018-06-23T00:00:55.639Z,51.07
2018-06-23T00:03:24.432Z,51.12
2018-06-23T00:05:53.241Z,52.28
2018-06-23T00:08:22.032Z,51.27
2018-06-23T00:10:50.813Z,52.03
2018-06-23T00:13:19.567Z,52.70
2018-06-23T00:15:48.417Z,52.17
2018-06-23T00:18:17.273Z,53.26
2018-06-23T00:20:46.093Z,51.92
2018-06-23T00:23:14.863Z,53.26
2018-06-23T00:25:48.736Z,52.98
2018-06-23T00:28:17.514Z,53.03
2018-06-23T00:30:46.337Z,54.30
2018-06-23T00:33:15.101Z,53.92
2018-06-23T00:35:43.906Z,53.74
2018-06-23T00:38:12.734Z,53.88
2018-06-23T00:40:41.522Z,53.40
2018-06-23T00:43:10.306Z,54.17
2018-06-23T00:45:39.111Z,53.86
2018-06-23T00:48:07.889Z,54.72
2018-06-23T00:50:36.698Z,55.04
2018-06-23T00:53:05.655Z,54.94
2018-06-23T00:55:34.425Z,54.56
2018-06-23T00:58:03.330Z,54.47
2018-06-23T01:00:32.150Z,54.48
2018-06-23T01:03:00.953Z,54.75
2018-06-23T01:05:29.714Z,54.58
2018-06-23T01:07:58.526Z,54.43
2018-06-23T01:10:27.372Z,55.04
2018-06-23T01:12:56.146Z,54.15
2018-06-23T01:15:25.008Z,55.04
2018-06-23T01:17:53.815Z,55.85
2018-06-23T01:20:22.597Z,57.03
2018-06-23T01:22:51.386Z,56.49
2018-06-23T01:25:20.188Z,56.67
2018-06-23T01:27:49.074Z,57.32
2018-06-23T01:30:17.874Z,56.73
2018-06-23T01:32:46.658Z,57.21
2018-06-23T01:35:15.460Z,57.48
2018-06-23T01:37:44.307Z,57.20
2018-06-23T01:40:13.561Z,58.29
2018-06-23T01:42:42.387Z,58.94
2018-06-23T01:45:11.205Z,58.03
2018-06-23T01:47:40.008Z,58.41
2018-06-23T01:50:08.838Z,57.76
2018-06-23T01:52:37.631Z,57.70
2018-06-23T01:55:06.493Z,58.41
2018-06-23T01:57:35.317Z,58.83
2018-06-23T02:00:04.170Z,58.21
2018-06-23T02:02:33.515Z,58.59
2018-06-23T02:05:02.303Z,57.82
2018-06-23T02:07:31.142Z,58.02
2018-06-23T02:09:59.957Z,58.56
2018-06-23T02:12:28.753Z,58.70
2018-06-23T02:15:03.830Z,57.70
2018-06-23T02:17:37.743Z,57.92
2018-06-23T02:20:11.645Z,58.89
2018-06-23T02:22:45.582Z,58.58
2018-06-23T02:25:19.457Z,58.82
2018-06-23T02:27:53.405Z,58.11
2018-06-23T02:30:36.584Z,57.78
2018-06-23T02:33:10.519Z,58.42
2018-06-23T02:35:39.311Z,58.63
2018-06-23T02:38:08.137Z,58.56
2018-06-23T02:40:36.926Z,58.79
2018-06-23T02:43:05.828Z,58.09
2018-06-23T02:45:35.564Z,58.08
2018-06-23T02:48:04.379Z,57.61
2018-06-23T02:50:33.176Z,58.24
2018-06-23T02:53:02.021Z,57.54
2018-06-23T02:55:30.827Z,57.27
2018-06-23T02:57:59.622Z,57.26
2018-06-23T03:00:28.389Z,56.82
2018-06-23T03:02:57.840Z,57.19
2018-06-23T03:05:26.662Z,57.40
2018-06-23T03:07:55.459Z,57.15
2018-06-23T03:10:24.245Z,57.33
2018-06-23T03:12:53.097Z,57.69
2018-06-23T03:15:21.947Z,57.66
2018-06-23T03:17:50.730Z,58.23
2018-06-23T03:20:19.619Z,57.76
2018-06-23T03:22:48.425Z,57.84
2018-06-23T03:25:17.188Z,57.68
2018-06-23T03:27:45.977Z,58.08
2018-06-23T03:30:14.725Z,58.12
2018-06-23T03:32:43.530Z,58.02
2018-06-23T03:35:12.323Z,57.27
2018-06-23T03:37:41.114Z,57.86
2018-06-23T03:40:09.951Z,57.61
2018-06-23T03:42:38.741Z,57.91
2018-06-23T03:45:07.566Z,57.72
2018-06-23T03:47:36.360Z,57.48
2018-06-23T03:50:05.562Z,57.35
2018-06-23T03:52:34.341Z,57.48
2018-06-23T03:55:03.186Z,57.65
2018-06-23T03:57:31.928Z,58.78
2018-06-23T04:00:00.685Z,59.28
2018-06-23T04:02:29.601Z,59.46
2018-06-23T04:04:58.414Z,59.46
2018-06-23T04:07:27.192Z,59.88
2018-06-23T04:09:55.969Z,59.54
2018-06-23T04:12:24.749Z,59.12
2018-06-23T04:14:53.626Z,59.68
2018-06-23T04:17:22.418Z,59.77
2018-06-23T04:19:51.210Z,58.69
2018-06-23T04:22:19.993Z,58.05
2018-06-23T04:24:48.774Z,58.48
2018-06-23T04:27:17.597Z,58.13
2018-06-23T04:29:46.358Z,58.66
2018-06-23T04:32:15.381Z,58.11
2018-06-23T04:34:44.159Z,58.35
2018-06-23T04:37:12.961Z,58.33
2018-06-23T04:39:41.761Z,58.48
2018-06-23T04:42:10.578Z,58.04
2018-06-23T04:44:39.450Z,57.79
2018-06-23T04:47:08.202Z,57.71
2018-06-23T04:49:37.075Z,56.71
2018-06-23T04:52:05.897Z,57.05
2018-06-23T04:54:34.733Z,56.58
2018-06-23T04:57:04.038Z,56.77
2018-06-23T04:59:32.794Z,56.03
2018-06-23T05:02:01.624Z,56.30
2018-06-23T05:04:30.462Z,55.56
2018-06-23T05:06:59.237Z,55.95
2018-06-23T05:09:28.099Z,55.55
2018-06-23T05:11:56.926Z,55.80
2018-06-23T05:14:25.748Z,55.80
2018-06-23T05:16:54.587Z,56.05
2018-06-23T05:19:23.401Z,55.96
2018-06-23T05:21:52.215Z,55.88
2018-06-23T05:24:21.046Z,55.48
2018-06-23T05:26:49.849Z,55.48
2018-06-23T05:29:18.611Z,55.33
2018-06-23T05:31:47.450Z,55.23
2018-06-23T05:34:16.334Z,55.12
2018-06-23T05:36:45.135Z,55.40
2018-06-23T05:39:13.930Z,55.35
2018-06-23T05:41:42.805Z,55.07
2018-06-23T05:44:12.466Z,54.78
2018-06-23T05:46:41.284Z,55.00
2018-06-23T05:49:10.038Z,55.32
2018-06-23T05:51:38.829Z,54.38
2018-06-23T05:54:07.640Z,54.79
2018-06-23T05:56:36.399Z,54.76
2018-06-23T05:59:05.317Z,54.44
2018-06-23T06:01:34.216Z,54.59
2018-06-23T06:04:02.989Z,54.87
2018-06-23T06:06:31.801Z,54.45
2018-06-23T06:09:00.561Z,54.49
2018-06-23T06:11:29.370Z,54.15
2018-06-23T06:13:58.187Z,54.50
2018-06-23T06:17:32.123Z,54.30
2018-06-23T06:20:02.106Z,53.81
2018-06-23T06:22:32.020Z,54.05
2018-06-23T06:25:00.920Z,53.79
2018-06-23T06:27:29.713Z,54.57
2018-06-23T06:29:59.016Z,54.42
2018-06-23T06:32:28.213Z,54.11
2018-06-23T06:34:57.137Z,53.80
2018-06-23T06:37:25.936Z,54.19
2018-06-23T06:39:55.055Z,54.30
2018-06-23T06:42:23.845Z,54.05
2018-06-23T06:44:52.625Z,53.75
2018-06-23T06:47:21.504Z,53.99
2018-06-23T06:49:50.302Z,54.00
2018-06-23T06:52:19.076Z,53.93
2018-06-23T06:54:47.911Z,54.00
2018-06-23T06:57:16.698Z,53.96
2018-06-23T06:59:45.485Z,53.80
2018-06-23T07:02:14.330Z,53.98
2018-06-23T07:04:43.153Z,54.06
2018-06-23T07:07:11.994Z,53.90
2018-06-23T07:09:40.822Z,53.93
2018-06-23T07:12:09.694Z,53.63
2018-06-23T07:14:38.501Z,53.69
2018-06-23T07:17:07.299Z,53.38
2018-06-23T07:19:36.085Z,53.86
2018-06-23T07:22:04.910Z,53.45
2018-06-23T07:24:33.689Z,53.35
2018-06-23T07:27:02.445Z,53.55
2018-06-23T07:29:31.230Z,53.26
2018-06-23T07:32:00.016Z,52.94
2018-06-23T07:34:28.862Z,52.35
2018-06-23T07:36:57.642Z,52.30
2018-06-23T07:39:26.418Z,52.49
2018-06-23T07:41:55.285Z,52.02
2018-06-23T07:44:24.053Z,52.56
2018-06-23T07:46:52.834Z,51.92
2018-06-23T07:49:21.633Z,52.05
2018-06-23T07:51:50.458Z,51.71
2018-06-23T07:54:19.261Z,51.05
2018-06-23T07:56:48.736Z,51.17
2018-06-23T07:59:17.550Z,51.04
2018-06-23T08:01:46.299Z,50.68
2018-06-23T08:04:15.921Z,50.65
2018-06-23T08:06:44.747Z,50.42
2018-06-23T08:09:13.561Z,50.82
2018-06-23T08:11:42.361Z,50.36
2018-06-23T08:14:11.108Z,50.37
2018-06-23T08:16:39.870Z,49.97
2018-06-23T08:19:08.673Z,49.86
2018-06-23T08:21:37.505Z,49.33
2018-06-23T08:24:07.195Z,49.68
2018-06-23T08:26:36.075Z,49.73
2018-06-23T08:29:04.815Z,48.85
2018-06-23T08:31:33.648Z,48.81
2018-06-23T08:34:02.486Z,48.86
2018-06-23T08:36:31.283Z,48.48
2018-06-23T08:39:00.055Z,48.56
2018-06-23T08:41:28.835Z,48.24
2018-06-23T08:43:57.630Z,48.91
2018-06-23T08:46:26.409Z,48.56
2018-06-23T08:48:55.405Z,48.44
2018-06-23T08:51:24.195Z,48.08
2018-06-23T08:53:52.970Z,48.50
2018-06-23T08:56:21.857Z,48.16
2018-06-23T08:58:50.636Z,48.16
2018-06-23T09:01:19.472Z,47.73
2018-06-23T09:03:48.281Z,47.86
2018-06-23T09:06:17.047Z,47.76
2018-06-23T09:08:45.822Z,47.49
2018-06-23T09:11:14.646Z,46.10
2018-06-23T09:13:43.508Z,47.00
2018-06-23T09:16:12.259Z,45.84
2018-06-23T09:18:41.059Z,46.40
2018-06-23T09:21:09.842Z,46.37
2018-06-23T09:23:38.645Z,45.52
2018-06-23T09:26:07.450Z,45.91
2018-06-23T09:28:36.312Z,46.45
2018-06-23T09:31:05.198Z,46.46
2018-06-23T09:33:34.020Z,45.95
2018-06-23T09:36:02.830Z,46.31
2018-06-23T09:38:31.633Z,45.48
2018-06-23T09:41:00.624Z,46.17
2018-06-23T09:43:29.422Z,45.35
2018-06-23T09:45:58.281Z,45.62
2018-06-23T09:48:27.035Z,45.80
2018-06-23T09:50:56.042Z,45.42
2018-06-23T09:53:24.828Z,44.92
2018-06-23T09:55:53.714Z,45.18
2018-06-23T09:58:22.498Z,45.54
2018-06-23T10:00:51.282Z,44.71
2018-06-23T10:03:20.130Z,45.32
2018-06-23T10:05:48.883Z,45.17
2018-06-23T10:08:17.685Z,43.98
2018-06-23T10:10:46.503Z,44.64
2018-06-23T10:13:15.310Z,44.42
2018-06-23T10:15:44.107Z,44.52
2018-06-23T10:18:12.945Z,44.58
2018-06-23T10:20:41.742Z,43.94
2018-06-23T10:23:10.518Z,43.95
2018-06-23T10:25:39.307Z,43.50
2018-06-23T10:28:08.090Z,44.40
2018-06-23T10:30:36.913Z,43.70
2018-06-23T10:33:05.754Z,43.93
2018-06-23T10:35:34.531Z,43.75
2018-06-23T10:38:03.347Z,43.45
2018-06-23T10:40:32.052Z,43.91
2018-06-23T10:43:00.884Z,44.10
2018-06-23T10:45:29.666Z,43.90
2018-06-23T10:47:58.478Z,42.23
2018-06-23T10:50:27.286Z,43.42
2018-06-23T10:52:56.054Z,43.13
2018-06-23T10:55:24.874Z,42.90
2018-06-23T10:57:53.860Z,43.02
2018-06-23T11:00:22.586Z,43.05
2018-06-23T11:02:51.385Z,42.96
2018-06-23T11:05:20.171Z,43.12
2018-06-23T11:07:48.929Z,42.66
2018-06-23T11:10:17.754Z,42.43
2018-06-23T11:12:46.575Z,41.98
2018-06-23T11:15:15.391Z,41.96
2018-06-23T11:17:44.162Z,42.20
2018-06-23T11:20:13.973Z,41.48
2018-06-23T11:22:43.053Z,42.35
2018-06-23T11:25:11.856Z,41.45
2018-06-23T11:27:40.666Z,42.10
2018-06-23T11:30:09.473Z,41.68
2018-06-23T11:32:38.249Z,41.92
2018-06-23T11:35:07.031Z,41.69
2018-06-23T11:37:35.849Z,41.95
2018-06-23T11:40:04.749Z,42.13
2018-06-23T11:42:33.542Z,41.38
2018-06-23T11:45:02.343Z,41.63
2018-06-23T11:47:31.132Z,41.91
2018-06-23T11:49:59.909Z,42.35
2018-06-23T11:52:28.813Z,42.03
2018-06-23T11:54:57.503Z,41.85
2018-06-23T11:57:26.292Z,41.31
2018-06-23T11:59:55.191Z,41.34
2018-06-23T12:02:23.992Z,41.82
2018-06-23T12:04:52.791Z,41.79
2018-06-23T12:07:21.564Z,42.02
2018-06-23T12:09:50.330Z,41.47
2018-06-23T12:12:19.135Z,41.76
2018-06-23T12:14:47.910Z,41.32
2018-06-23T12:17:16.663Z,41.31
2018-06-23T12:19:45.431Z,41.55
2018-06-23T12:22:14.208Z,41.19
2018-06-23T12:24:42.954Z,41.27
2018-06-23T12:27:11.740Z,41.16
2018-06-23T12:29:40.727Z,41.28
2018-06-23T12:32:09.585Z,41.18
2018-06-23T12:34:38.458Z,41.53
2018-06-23T12:37:07.262Z,41.37
2018-06-23T12:39:36.047Z,40.92
2018-06-23T12:42:04.891Z,40.12
2018-06-23T12:44:33.653Z,40.61
2018-06-23T12:47:02.440Z,39.74
2018-06-23T12:49:31.210Z,40.44
2018-06-23T12:51:59.978Z,40.10
2018-06-23T12:54:28.730Z,39.24
2018-06-23T12:56:57.500Z,39.63
2018-06-23T12:59:26.291Z,40.38
2018-06-23T13:01:55.090Z,40.20
2018-06-23T13:04:23.884Z,39.52
2018-06-23T13:06:52.680Z,38.74
2018-06-23T13:09:21.460Z,38.77
2018-06-23T13:11:50.242Z,39.13
2018-06-23T13:14:19.042Z,39.08
2018-06-23T13:16:47.826Z,39.16
2018-06-23T13:19:16.587Z,39.25
2018-06-23T13:21:45.388Z,38.90
2018-06-23T13:24:14.162Z,39.89
2018-06-23T13:26:42.962Z,38.54
2018-06-23T13:29:11.734Z,39.56
2018-06-23T13:31:40.532Z,39.52
2018-06-23T13:34:09.325Z,39.64
2018-06-23T13:36:38.159Z,39.75
2018-06-23T13:39:08.802Z,38.57
2018-06-23T13:41:37.619Z,37.79
2018-06-23T13:44:06.433Z,38.71
2018-06-23T13:46:35.241Z,38.85
2018-06-23T13:49:04.059Z,37.71
2018-06-23T13:51:32.859Z,39.16
2018-06-23T13:54:01.691Z,39.64
2018-06-23T13:56:30.474Z,38.69
2018-06-23T13:58:59.278Z,38.77
2018-06-23T14:01:28.061Z,37.94
2018-06-23T14:03:56.844Z,37.83
2018-06-23T14:06:25.646Z,38.92
2018-06-23T14:08:54.458Z,38.39
2018-06-23T14:11:23.240Z,37.37
2018-06-23T14:13:51.997Z,37.90
2018-06-23T14:16:20.820Z,38.33
2018-06-23T14:18:49.616Z,38.56
2018-06-23T14:21:18.381Z,39.05
2018-06-23T14:23:47.175Z,38.04
2018-06-23T14:26:15.969Z,37.78
2018-06-23T14:28:44.725Z,38.20
2018-06-23T14:31:13.641Z,38.65
2018-06-23T14:33:42.447Z,38.02
2018-06-23T14:36:11.250Z,37.86
2018-06-23T14:38:40.015Z,38.42
2018-06-23T14:41:08.937Z,37.38
2018-06-23T14:43:37.782Z,36.91
2018-06-23T14:46:06.706Z,36.28
2018-06-23T14:48:35.649Z,35.58
2018-06-23T14:51:04.473Z,36.21
2018-06-23T14:53:33.310Z,36.28
2018-06-23T14:56:02.142Z,35.69
2018-06-23T14:58:30.975Z,35.78
2018-06-23T15:00:59.777Z,36.63
2018-06-23T15:03:28.606Z,36.45
2018-06-23T15:05:57.450Z,36.35
2018-06-23T15:08:37.324Z,36.44
2018-06-23T15:11:17.219Z,34.93
2018-06-23T15:13:46.027Z,34.12
2018-06-23T15:16:14.823Z,33.97
2018-06-23T15:18:43.618Z,34.97
2018-06-23T15:21:12.429Z,33.84
2018-06-23T15:23:41.354Z,34.23
2018-06-23T15:26:10.178Z,33.94
2018-06-23T15:28:39.081Z,34.00
2018-06-23T15:31:07.885Z,33.74
2018-06-23T15:33:36.677Z,32.99
2018-06-23T15:36:05.788Z,32.74
2018-06-23T15:38:34.608Z,32.95
2018-06-23T15:41:03.417Z,34.06
2018-06-23T15:43:32.173Z,34.01
2018-06-23T15:46:00.999Z,33.26
2018-06-23T15:48:29.930Z,34.98
2018-06-23T15:50:58.746Z,33.90
2018-06-23T15:53:27.547Z,33.43
2018-06-23T15:55:56.375Z,33.76
2018-06-23T15:58:25.474Z,33.84
2018-06-23T16:00:54.293Z,33.66
2018-06-23T16:03:23.122Z,32.48
2018-06-23T16:05:51.960Z,31.74
2018-06-23T16:08:20.781Z,31.36
2018-06-23T16:10:49.577Z,32.20
2018-06-23T16:13:18.441Z,32.28
2018-06-23T16:15:47.285Z,33.21
2018-06-23T16:18:16.138Z,32.22
2018-06-23T16:20:44.989Z,32.73
2018-06-23T16:23:13.862Z,33.12
2018-06-23T16:25:42.676Z,33.50
2018-06-23T16:28:11.450Z,32.80
2018-06-23T16:30:40.264Z,33.49
2018-06-23T16:33:09.083Z,32.52
2018-06-23T16:35:37.917Z,33.10
2018-06-23T16:38:06.718Z,33.50
2018-06-23T16:40:35.593Z,32.92
2018-06-23T16:43:04.479Z,33.83
2018-06-23T16:45:33.291Z,33.46
2018-06-23T16:48:02.189Z,33.57
2018-06-23T16:50:30.978Z,33.36
2018-06-23T16:52:59.800Z,33.11
2018-06-23T16:55:28.589Z,33.18
2018-06-23T16:57:57.390Z,32.79
2018-06-23T17:00:26.184Z,33.54
2018-06-23T17:02:54.975Z,33.34
2018-06-23T17:05:23.762Z,33.52
2018-06-23T17:07:52.555Z,32.67
2018-06-23T17:10:21.316Z,32.08
2018-06-23T17:12:50.112Z,31.48
2018-06-23T17:15:18.917Z,32.07
2018-06-23T17:17:47.728Z,31.70
2018-06-23T17:20:16.548Z,31.14
2018-06-23T17:22:45.373Z,30.85
2018-06-23T17:25:14.201Z,29.80
2018-06-23T17:27:43.002Z,29.72
2018-06-23T17:30:11.774Z,30.23
2018-06-23T17:32:40.574Z,29.96
2018-06-23T17:35:09.334Z,30.18
2018-06-23T17:37:38.112Z,30.83
2018-06-23T17:40:06.907Z,30.95
2018-06-23T17:42:35.689Z,30.93
2018-06-23T17:45:05.055Z,30.77
2018-06-23T17:47:33.861Z,31.10
2018-06-23T17:50:02.680Z,31.19
2018-06-23T17:52:31.443Z,31.26
2018-06-23T17:55:00.245Z,31.33
2018-06-23T17:57:29.091Z,31.71
2018-06-23T17:59:57.861Z,31.92
2018-06-23T18:02:27.013Z,31.90
2018-06-23T18:04:55.777Z,32.24
2018-06-23T18:07:24.539Z,32.38
2018-06-23T18:09:53.297Z,32.16
2018-06-23T18:12:22.069Z,32.57
2018-06-23T18:14:50.879Z,32.57
2018-06-23T18:17:19.745Z,32.97
2018-06-23T18:19:48.517Z,33.50
2018-06-23T18:22:17.294Z,33.19
2018-06-23T18:24:46.056Z,34.03
2018-06-23T18:27:14.847Z,34.05
2018-06-23T18:29:43.635Z,34.14
2018-06-23T18:32:12.393Z,33.86
2018-06-23T18:34:41.167Z,34.38
2018-06-23T18:37:10.046Z,34.46
2018-06-23T18:39:38.848Z,34.44
2018-06-23T18:42:07.650Z,35.09
2018-06-23T18:44:36.437Z,34.87
2018-06-23T18:47:05.318Z,35.64
2018-06-23T18:49:34.110Z,36.11
2018-06-23T18:52:02.984Z,35.98
2018-06-23T18:54:31.896Z,36.88
2018-06-23T18:57:00.783Z,37.51
2018-06-23T18:59:30.202Z,37.52
2018-06-23T19:01:59.079Z,37.09
2018-06-23T19:04:27.954Z,37.62
2018-06-23T19:06:56.867Z,38.66
2018-06-23T19:09:25.877Z,38.95
2018-06-23T19:11:54.697Z,38.78
2018-06-23T19:14:23.566Z,38.92
2018-06-23T19:16:52.583Z,38.89
2018-06-23T19:19:21.602Z,39.01
2018-06-23T19:21:50.479Z,38.86
2018-06-23T19:24:19.321Z,39.51
2018-06-23T19:26:48.202Z,38.84
2018-06-23T19:29:17.085Z,39.54
2018-06-23T19:31:46.006Z,39.28
2018-06-23T19:34:14.874Z,39.50
2018-06-23T19:36:44.334Z,39.36
2018-06-23T19:39:13.203Z,39.49
2018-06-23T19:41:42.020Z,39.80
2018-06-23T19:44:11.519Z,39.65
2018-06-23T19:46:40.380Z,40.24
2018-06-23T19:49:09.261Z,40.38
2018-06-23T19:51:38.128Z,40.18
2018-06-23T19:54:06.958Z,40.23
2018-06-23T19:56:35.808Z,40.80
2018-06-23T20:02:38.184Z,40.98
2018-06-23T20:05:31.014Z,41.34
2018-06-23T20:08:14.885Z,41.85
2018-06-23T20:10:43.678Z,42.66
2018-06-23T20:13:12.541Z,43.06
2018-06-23T20:15:41.402Z,42.88
2018-06-23T20:18:10.330Z,42.97
2018-06-23T20:20:39.143Z,43.28
2018-06-23T20:23:07.966Z,42.94
2018-06-23T20:25:36.914Z,43.87
2018-06-23T20:28:05.749Z,43.68
2018-06-23T20:30:34.592Z,43.71
2018-06-23T20:33:03.496Z,44.15
2018-06-23T20:35:32.302Z,43.56
2018-06-23T20:38:01.153Z,43.78
2018-06-23T20:40:30.941Z,44.15
2018-06-23T20:42:59.797Z,44.52
2018-06-23T20:45:28.634Z,45.16
2018-06-23T20:47:57.482Z,45.59
2018-06-23T20:50:26.397Z,45.70
2018-06-23T20:52:55.253Z,45.67
2018-06-23T20:55:24.183Z,45.74
2018-06-23T20:57:53.217Z,46.28
2018-06-23T21:00:22.442Z,46.77
2018-06-23T21:02:51.286Z,46.62
2018-06-23T21:05:20.140Z,47.07
2018-06-23T21:07:48.942Z,46.51
2018-06-23T21:10:28.807Z,46.81
2018-06-23T21:12:57.663Z,47.38
2018-06-23T21:15:26.457Z,47.13
2018-06-23T21:17:55.492Z,46.81
2018-06-23T21:20:24.477Z,47.59
2018-06-23T21:22:53.283Z,47.93
2018-06-23T21:25:22.086Z,48.16
2018-06-23T21:27:50.921Z,48.07
2018-06-23T21:30:19.722Z,48.27
2018-06-23T21:32:48.501Z,48.93
2018-06-23T21:35:17.300Z,48.57
2018-06-23T21:37:46.143Z,48.61
2018-06-23T21:40:15.026Z,48.50
2018-06-23T21:42:43.770Z,49.24
2018-06-23T21:45:12.645Z,49.92
2018-06-23T21:47:41.450Z,50.22
2018-06-23T21:50:10.360Z,49.81
2018-06-23T21:52:39.433Z,49.60
2018-06-23T21:55:08.405Z,49.37
2018-06-23T21:57:37.234Z,49.25
2018-06-23T22:00:11.759Z,49.10
2018-06-23T22:02:40.550Z,49.55
2018-06-23T22:05:09.381Z,49.82
2018-06-23T22:07:38.187Z,49.53
2018-06-23T22:10:07.314Z,49.25
2018-06-23T22:12:36.138Z,49.29
2018-06-23T22:15:05.031Z,49.70
2018-06-23T22:17:33.888Z,49.64
2018-06-23T22:20:02.684Z,49.84
2018-06-23T22:22:33.265Z,50.94
2018-06-23T22:25:02.051Z,51.24
2018-06-23T22:27:30.842Z,51.87
2018-06-23T22:29:59.669Z,51.66
2018-06-23T22:32:28.471Z,52.44
2018-06-23T22:34:57.270Z,52.26
2018-06-23T22:37:26.068Z,52.78
2018-06-23T22:39:54.896Z,52.95
2018-06-23T22:42:23.699Z,53.02
2018-06-23T22:44:52.495Z,52.90
2018-06-23T22:47:21.272Z,53.22
2018-06-23T22:49:50.113Z,53.65
2018-06-23T22:52:18.946Z,52.68
2018-06-23T22:54:48.118Z,53.72
2018-06-23T22:57:16.953Z,53.62
2018-06-23T22:59:45.819Z,53.50
2018-06-23T23:02:14.614Z,52.53
2018-06-23T23:04:43.406Z,52.29
2018-06-23T23:07:12.232Z,52.59
2018-06-23T23:09:41.060Z,52.28
2018-06-23T23:12:09.848Z,52.02
2018-06-23T23:14:38.665Z,51.88
2018-06-23T23:17:07.594Z,53.13
2018-06-23T23:19:36.406Z,54.06
2018-06-23T23:22:05.218Z,54.70
2018-06-23T23:24:34.102Z,55.40
2018-06-23T23:27:02.934Z,54.11
2018-06-23T23:29:31.901Z,53.88
2018-06-23T23:32:00.670Z,54.32
2018-06-23T23:34:29.466Z,54.29
2018-06-23T23:36:58.230Z,54.58
2018-06-23T23:39:27.057Z,54.13
2018-06-23T23:41:55.826Z,54.05
2018-06-23T23:44:24.645Z,53.11
2018-06-23T23:46:53.570Z,53.02
2018-06-23T23:49:22.383Z,53.26
2018-06-23T23:51:51.230Z,53.72
2018-06-23T23:54:20.015Z,53.56
2018-06-23T23:56:48.847Z,53.57
2018-06-23T23:59:17.658Z,53.67
